sensor_id;sensor_type;location;lat;lon;timestamp;P1;durP1;ratioP1;P2;durP2;ratioP2
5587;SDS011;2816;49.778;9.986;2024-01-15T00:02:20;36.83;;;13.60;;
5587;SDS011;2816;49.778;9.986;2024-01-15T00:04:48;46.23;;;17.40;;
5587;SDS011;2816;49.778;9.986;2024-01-15T00:07:15;40.60;;;14.77;;
5587;SDS011;2816;49.778;9.986;2024-01-15T00:09:42;43.37;;;17.63;;
5587;SDS011;2816;49.778;9.986;2024-01-15T00:12:09;38.83;;;14.57;;
5587;SDS011;2816;49.778;9.986;2024-01-15T00:14:35;42.40;;;16.47;;
5587;SDS011;2816;49.778;9.986;2024-01-15T00:17:02;36.67;;;13.20;;
5587;SDS011;2816;49.778;9.986;2024-01-15T00:19:30;41.00;;;15.87;;
5587;SDS011;2816;49.778;9.986;2024-01-15T00:21:58;48.50;;;16.80;;
5587;SDS011;2816;49.778;9.986;2024-01-15T00:24:25;38.93;;;17.37;;
5587;SDS011;2816;49.778;9.986;2024-01-15T00:26:52;31.97;;;14.37;;
5587;SDS011;2816;49.778;9.986;2024-01-15T00:29:20;41.87;;;15.53;;
5587;SDS011;2816;49.778;9.986;2024-01-15T00:31:47;26.77;;;11.90;;
5587;SDS011;2816;49.778;9.986;2024-01-15T00:34:14;37.53;;;15.63;;
5587;SDS011;2816;49.778;9.986;2024-01-15T00:36:41;35.30;;;14.10;;
5587;SDS011;2816;49.778;9.986;2024-01-15T00:39:09;37.90;;;14.93;;
5587;SDS011;2816;49.778;9.986;2024-01-15T00:41:36;30.43;;;11.87;;
5587;SDS011;2816;49.778;9.986;2024-01-15T00:44:03;30.70;;;12.50;;
5587;SDS011;2816;49.778;9.986;2024-01-15T00:46:30;35.80;;;14.70;;
5587;SDS011;2816;49.778;9.986;2024-01-15T00:48:57;36.33;;;16.23;;
5587;SDS011;2816;49.778;9.986;2024-01-15T00:51:24;38.20;;;14.23;;
5587;SDS011;2816;49.778;9.986;2024-01-15T00:53:51;39.37;;;13.70;;
5587;SDS011;2816;49.778;9.986;2024-01-15T00:56:19;41.37;;;18.23;;
5587;SDS011;2816;49.778;9.986;2024-01-15T00:58:46;44.43;;;15.87;;
5587;SDS011;2816;49.778;9.986;2024-01-15T01:01:13;43.20;;;15.80;;
5587;SDS011;2816;49.778;9.986;2024-01-15T01:03:40;39.97;;;14.77;;
5587;SDS011;2816;49.778;9.986;2024-01-15T01:06:06;39.03;;;15.63;;
5587;SDS011;2816;49.778;9.986;2024-01-15T01:08:33;38.97;;;14.00;;
5587;SDS011;2816;49.778;9.986;2024-01-15T01:11:00;45.37;;;14.97;;
5587;SDS011;2816;49.778;9.986;2024-01-15T01:13:28;39.80;;;15.63;;
5587;SDS011;2816;49.778;9.986;2024-01-15T01:15:55;44.93;;;15.03;;
5587;SDS011;2816;49.778;9.986;2024-01-15T01:18:23;42.83;;;16.20;;
5587;SDS011;2816;49.778;9.986;2024-01-15T01:20:50;41.90;;;17.17;;
5587;SDS011;2816;49.778;9.986;2024-01-15T01:23:17;40.33;;;15.90;;
5587;SDS011;2816;49.778;9.986;2024-01-15T01:25:44;35.30;;;12.17;;
5587;SDS011;2816;49.778;9.986;2024-01-15T01:28:10;43.37;;;16.07;;
5587;SDS011;2816;49.778;9.986;2024-01-15T01:30:39;36.00;;;14.03;;
5587;SDS011;2816;49.778;9.986;2024-01-15T01:33:06;36.07;;;14.30;;
5587;SDS011;2816;49.778;9.986;2024-01-15T01:35:32;35.97;;;14.23;;
5587;SDS011;2816;49.778;9.986;2024-01-15T01:37:59;33.27;;;14.40;;
5587;SDS011;2816;49.778;9.986;2024-01-15T01:40:26;38.97;;;14.90;;
5587;SDS011;2816;49.778;9.986;2024-01-15T01:42:53;35.97;;;14.33;;
5587;SDS011;2816;49.778;9.986;2024-01-15T01:45:20;37.10;;;16.30;;
5587;SDS011;2816;49.778;9.986;2024-01-15T01:47:48;33.60;;;12.17;;
5587;SDS011;2816;49.778;9.986;2024-01-15T01:50:14;34.00;;;12.77;;
5587;SDS011;2816;49.778;9.986;2024-01-15T01:52:41;33.00;;;13.50;;
5587;SDS011;2816;49.778;9.986;2024-01-15T01:55:08;32.97;;;13.20;;
5587;SDS011;2816;49.778;9.986;2024-01-15T01:57:36;26.40;;;10.50;;
5587;SDS011;2816;49.778;9.986;2024-01-15T02:00:04;30.40;;;10.80;;
5587;SDS011;2816;49.778;9.986;2024-01-15T02:02:32;27.30;;;12.57;;
5587;SDS011;2816;49.778;9.986;2024-01-15T02:05:01;37.63;;;13.57;;
5587;SDS011;2816;49.778;9.986;2024-01-15T02:07:29;30.50;;;9.63;;
5587;SDS011;2816;49.778;9.986;2024-01-15T02:09:57;25.23;;;10.10;;
5587;SDS011;2816;49.778;9.986;2024-01-15T02:12:23;25.20;;;9.10;;
5587;SDS011;2816;49.778;9.986;2024-01-15T02:14:51;28.30;;;10.70;;
5587;SDS011;2816;49.778;9.986;2024-01-15T02:17:18;26.53;;;12.30;;
5587;SDS011;2816;49.778;9.986;2024-01-15T02:19:45;23.30;;;10.97;;
5587;SDS011;2816;49.778;9.986;2024-01-15T02:22:13;30.20;;;13.90;;
5587;SDS011;2816;49.778;9.986;2024-01-15T02:24:41;31.63;;;11.90;;
5587;SDS011;2816;49.778;9.986;2024-01-15T02:27:08;24.80;;;11.50;;
5587;SDS011;2816;49.778;9.986;2024-01-15T02:29:35;21.80;;;7.83;;
5587;SDS011;2816;49.778;9.986;2024-01-15T02:32:04;28.37;;;12.10;;
5587;SDS011;2816;49.778;9.986;2024-01-15T02:34:31;23.00;;;10.07;;
5587;SDS011;2816;49.778;9.986;2024-01-15T02:36:58;27.10;;;11.40;;
5587;SDS011;2816;49.778;9.986;2024-01-15T02:39:25;28.20;;;11.77;;
5587;SDS011;2816;49.778;9.986;2024-01-15T02:41:53;22.07;;;9.47;;
5587;SDS011;2816;49.778;9.986;2024-01-15T02:44:21;28.63;;;12.17;;
5587;SDS011;2816;49.778;9.986;2024-01-15T02:46:48;24.00;;;11.30;;
5587;SDS011;2816;49.778;9.986;2024-01-15T02:49:15;25.60;;;10.40;;
5587;SDS011;2816;49.778;9.986;2024-01-15T02:51:42;29.77;;;11.00;;
5587;SDS011;2816;49.778;9.986;2024-01-15T02:54:09;26.27;;;10.87;;
5587;SDS011;2816;49.778;9.986;2024-01-15T02:56:35;23.33;;;11.20;;
5587;SDS011;2816;49.778;9.986;2024-01-15T02:59:04;24.93;;;11.83;;
5587;SDS011;2816;49.778;9.986;2024-01-15T03:01:30;28.20;;;12.27;;
5587;SDS011;2816;49.778;9.986;2024-01-15T03:03:57;28.30;;;10.90;;
5587;SDS011;2816;49.778;9.986;2024-01-15T03:06:24;24.50;;;11.07;;
5587;SDS011;2816;49.778;9.986;2024-01-15T03:08:51;24.63;;;10.80;;
5587;SDS011;2816;49.778;9.986;2024-01-15T03:11:18;22.50;;;10.50;;
5587;SDS011;2816;49.778;9.986;2024-01-15T03:13:45;27.73;;;12.60;;
5587;SDS011;2816;49.778;9.986;2024-01-15T03:16:13;25.97;;;10.77;;
5587;SDS011;2816;49.778;9.986;2024-01-15T03:18:40;24.77;;;10.50;;
5587;SDS011;2816;49.778;9.986;2024-01-15T03:21:07;28.63;;;11.00;;
5587;SDS011;2816;49.778;9.986;2024-01-15T03:23:34;23.37;;;10.60;;
5587;SDS011;2816;49.778;9.986;2024-01-15T03:26:01;23.37;;;10.60;;
5587;SDS011;2816;49.778;9.986;2024-01-15T03:28:28;23.10;;;10.70;;
5587;SDS011;2816;49.778;9.986;2024-01-15T03:30:56;21.70;;;10.40;;
5587;SDS011;2816;49.778;9.986;2024-01-15T03:33:24;23.97;;;10.10;;
5587;SDS011;2816;49.778;9.986;2024-01-15T03:35:51;23.87;;;10.97;;
5587;SDS011;2816;49.778;9.986;2024-01-15T03:38:18;20.97;;;9.70;;
5587;SDS011;2816;49.778;9.986;2024-01-15T03:40:44;25.60;;;10.47;;
5587;SDS011;2816;49.778;9.986;2024-01-15T03:43:11;29.50;;;12.23;;
5587;SDS011;2816;49.778;9.986;2024-01-15T03:45:39;26.17;;;10.70;;
5587;SDS011;2816;49.778;9.986;2024-01-15T03:48:05;25.40;;;11.40;;
5587;SDS011;2816;49.778;9.986;2024-01-15T03:50:34;23.23;;;10.30;;
5587;SDS011;2816;49.778;9.986;2024-01-15T03:53:01;19.87;;;9.93;;
5587;SDS011;2816;49.778;9.986;2024-01-15T03:55:27;22.40;;;10.90;;
5587;SDS011;2816;49.778;9.986;2024-01-15T03:57:55;24.57;;;10.47;;
5587;SDS011;2816;49.778;9.986;2024-01-15T04:00:22;24.60;;;10.03;;
5587;SDS011;2816;49.778;9.986;2024-01-15T04:02:49;24.40;;;10.07;;
5587;SDS011;2816;49.778;9.986;2024-01-15T04:05:16;22.57;;;9.80;;
5587;SDS011;2816;49.778;9.986;2024-01-15T04:07:44;22.63;;;11.30;;
5587;SDS011;2816;49.778;9.986;2024-01-15T04:10:11;23.03;;;11.67;;
5587;SDS011;2816;49.778;9.986;2024-01-15T04:12:38;20.70;;;10.73;;
5587;SDS011;2816;49.778;9.986;2024-01-15T04:15:05;24.00;;;10.83;;
5587;SDS011;2816;49.778;9.986;2024-01-15T04:17:33;24.47;;;9.70;;
5587;SDS011;2816;49.778;9.986;2024-01-15T04:20:00;24.80;;;11.10;;
5587;SDS011;2816;49.778;9.986;2024-01-15T04:22:27;24.07;;;10.93;;
5587;SDS011;2816;49.778;9.986;2024-01-15T04:24:55;26.30;;;9.97;;
5587;SDS011;2816;49.778;9.986;2024-01-15T04:27:22;23.93;;;11.43;;
5587;SDS011;2816;49.778;9.986;2024-01-15T04:29:49;21.37;;;10.07;;
5587;SDS011;2816;49.778;9.986;2024-01-15T04:32:16;23.83;;;12.00;;
5587;SDS011;2816;49.778;9.986;2024-01-15T04:34:43;21.97;;;11.17;;
5587;SDS011;2816;49.778;9.986;2024-01-15T04:37:10;26.97;;;11.13;;
5587;SDS011;2816;49.778;9.986;2024-01-15T04:39:36;24.00;;;10.60;;
5587;SDS011;2816;49.778;9.986;2024-01-15T04:42:05;26.87;;;11.63;;
5587;SDS011;2816;49.778;9.986;2024-01-15T04:44:32;20.13;;;9.70;;
5587;SDS011;2816;49.778;9.986;2024-01-15T04:46:59;22.83;;;11.00;;
5587;SDS011;2816;49.778;9.986;2024-01-15T04:49:25;17.67;;;5.53;;
5587;SDS011;2816;49.778;9.986;2024-01-15T04:51:54;24.60;;;9.67;;
5587;SDS011;2816;49.778;9.986;2024-01-15T04:54:21;24.23;;;10.53;;
5587;SDS011;2816;49.778;9.986;2024-01-15T04:56:48;27.93;;;11.97;;
5587;SDS011;2816;49.778;9.986;2024-01-15T04:59:16;32.67;;;11.47;;
5587;SDS011;2816;49.778;9.986;2024-01-15T05:01:43;20.30;;;9.23;;
5587;SDS011;2816;49.778;9.986;2024-01-15T05:04:10;25.90;;;11.90;;
5587;SDS011;2816;49.778;9.986;2024-01-15T05:06:36;27.10;;;10.90;;
5587;SDS011;2816;49.778;9.986;2024-01-15T05:09:03;27.50;;;10.97;;
5587;SDS011;2816;49.778;9.986;2024-01-15T05:11:30;27.60;;;11.60;;
5587;SDS011;2816;49.778;9.986;2024-01-15T05:13:57;25.93;;;10.80;;
5587;SDS011;2816;49.778;9.986;2024-01-15T05:16:25;26.40;;;11.77;;
5587;SDS011;2816;49.778;9.986;2024-01-15T05:18:52;28.33;;;11.30;;
5587;SDS011;2816;49.778;9.986;2024-01-15T05:21:19;27.70;;;11.50;;
5587;SDS011;2816;49.778;9.986;2024-01-15T05:23:46;27.60;;;11.37;;
5587;SDS011;2816;49.778;9.986;2024-01-15T05:26:13;27.80;;;10.87;;
5587;SDS011;2816;49.778;9.986;2024-01-15T05:28:40;24.27;;;9.73;;
5587;SDS011;2816;49.778;9.986;2024-01-15T05:31:07;34.33;;;13.00;;
5587;SDS011;2816;49.778;9.986;2024-01-15T05:33:37;30.93;;;11.90;;
5587;SDS011;2816;49.778;9.986;2024-01-15T05:36:04;34.97;;;13.87;;
5587;SDS011;2816;49.778;9.986;2024-01-15T05:38:31;29.33;;;10.60;;
5587;SDS011;2816;49.778;9.986;2024-01-15T05:40:58;28.70;;;11.80;;
5587;SDS011;2816;49.778;9.986;2024-01-15T05:43:24;26.33;;;11.43;;
5587;SDS011;2816;49.778;9.986;2024-01-15T05:45:51;24.90;;;11.23;;
5587;SDS011;2816;49.778;9.986;2024-01-15T05:48:18;26.53;;;10.30;;
5587;SDS011;2816;49.778;9.986;2024-01-15T05:50:47;33.63;;;13.90;;
5587;SDS011;2816;49.778;9.986;2024-01-15T05:53:13;23.90;;;10.47;;
5587;SDS011;2816;49.778;9.986;2024-01-15T05:55:40;23.43;;;11.03;;
5587;SDS011;2816;49.778;9.986;2024-01-15T05:58:07;22.00;;;10.40;;
5587;SDS011;2816;49.778;9.986;2024-01-15T06:00:34;24.87;;;10.60;;
5587;SDS011;2816;49.778;9.986;2024-01-15T06:03:03;24.70;;;9.53;;
5587;SDS011;2816;49.778;9.986;2024-01-15T06:05:30;28.17;;;10.90;;
5587;SDS011;2816;49.778;9.986;2024-01-15T06:07:58;28.20;;;11.77;;
5587;SDS011;2816;49.778;9.986;2024-01-15T06:10:25;22.27;;;8.90;;
5587;SDS011;2816;49.778;9.986;2024-01-15T06:12:52;17.57;;;9.07;;
5587;SDS011;2816;49.778;9.986;2024-01-15T06:15:19;23.00;;;10.67;;
5587;SDS011;2816;49.778;9.986;2024-01-15T06:17:46;23.20;;;10.43;;
5587;SDS011;2816;49.778;9.986;2024-01-15T06:20:13;23.33;;;9.97;;
5587;SDS011;2816;49.778;9.986;2024-01-15T06:22:40;20.43;;;9.80;;
5587;SDS011;2816;49.778;9.986;2024-01-15T06:25:08;24.60;;;11.67;;
5587;SDS011;2816;49.778;9.986;2024-01-15T06:27:35;26.27;;;10.00;;
5587;SDS011;2816;49.778;9.986;2024-01-15T06:30:02;25.57;;;11.60;;
5587;SDS011;2816;49.778;9.986;2024-01-15T06:32:30;26.37;;;10.57;;
5587;SDS011;2816;49.778;9.986;2024-01-15T06:34:57;23.03;;;10.90;;
5587;SDS011;2816;49.778;9.986;2024-01-15T06:37:23;24.63;;;11.40;;
5587;SDS011;2816;49.778;9.986;2024-01-15T06:39:50;11.47;;;5.17;;
5587;SDS011;2816;49.778;9.986;2024-01-15T06:42:18;21.00;;;9.07;;
5587;SDS011;2816;49.778;9.986;2024-01-15T06:44:47;27.57;;;12.00;;
5587;SDS011;2816;49.778;9.986;2024-01-15T06:47:13;35.13;;;17.43;;
5587;SDS011;2816;49.778;9.986;2024-01-15T06:49:42;24.80;;;11.07;;
5587;SDS011;2816;49.778;9.986;2024-01-15T06:52:09;15.50;;;6.60;;
5587;SDS011;2816;49.778;9.986;2024-01-15T06:54:36;23.00;;;10.03;;
5587;SDS011;2816;49.778;9.986;2024-01-15T06:57:03;21.30;;;9.23;;
5587;SDS011;2816;49.778;9.986;2024-01-15T06:59:33;22.90;;;10.10;;
5587;SDS011;2816;49.778;9.986;2024-01-15T07:02:00;20.10;;;9.30;;
5587;SDS011;2816;49.778;9.986;2024-01-15T07:04:27;23.30;;;10.17;;
5587;SDS011;2816;49.778;9.986;2024-01-15T07:06:54;17.03;;;9.03;;
5587;SDS011;2816;49.778;9.986;2024-01-15T07:09:21;24.30;;;11.03;;
5587;SDS011;2816;49.778;9.986;2024-01-15T07:11:48;23.13;;;10.70;;
5587;SDS011;2816;49.778;9.986;2024-01-15T07:14:15;22.10;;;10.77;;
5587;SDS011;2816;49.778;9.986;2024-01-15T07:16:43;11.63;;;4.40;;
5587;SDS011;2816;49.778;9.986;2024-01-15T07:19:11;21.97;;;10.90;;
5587;SDS011;2816;49.778;9.986;2024-01-15T07:21:38;27.20;;;10.33;;
5587;SDS011;2816;49.778;9.986;2024-01-15T07:24:07;21.20;;;10.23;;
5587;SDS011;2816;49.778;9.986;2024-01-15T07:26:34;24.50;;;10.63;;
5587;SDS011;2816;49.778;9.986;2024-01-15T07:29:01;21.97;;;10.50;;
5587;SDS011;2816;49.778;9.986;2024-01-15T07:31:28;26.20;;;11.00;;
5587;SDS011;2816;49.778;9.986;2024-01-15T07:33:56;23.77;;;11.27;;
5587;SDS011;2816;49.778;9.986;2024-01-15T07:36:23;22.97;;;9.70;;
5587;SDS011;2816;49.778;9.986;2024-01-15T07:38:50;14.93;;;7.03;;
5587;SDS011;2816;49.778;9.986;2024-01-15T07:41:17;19.67;;;9.80;;
5587;SDS011;2816;49.778;9.986;2024-01-15T07:43:44;28.30;;;10.73;;
5587;SDS011;2816;49.778;9.986;2024-01-15T07:46:11;16.10;;;8.47;;
5587;SDS011;2816;49.778;9.986;2024-01-15T07:48:38;17.77;;;9.93;;
5587;SDS011;2816;49.778;9.986;2024-01-15T07:51:06;20.57;;;8.97;;
5587;SDS011;2816;49.778;9.986;2024-01-15T07:53:33;16.07;;;7.30;;
5587;SDS011;2816;49.778;9.986;2024-01-15T07:55:59;19.43;;;9.33;;
5587;SDS011;2816;49.778;9.986;2024-01-15T07:58:26;21.50;;;10.57;;
5587;SDS011;2816;49.778;9.986;2024-01-15T08:00:53;18.87;;;9.37;;
5587;SDS011;2816;49.778;9.986;2024-01-15T08:03:20;22.57;;;11.13;;
5587;SDS011;2816;49.778;9.986;2024-01-15T08:05:47;21.27;;;9.40;;
5587;SDS011;2816;49.778;9.986;2024-01-15T08:08:19;17.93;;;9.50;;
5587;SDS011;2816;49.778;9.986;2024-01-15T08:10:48;20.23;;;9.37;;
5587;SDS011;2816;49.778;9.986;2024-01-15T08:13:15;21.90;;;10.20;;
5587;SDS011;2816;49.778;9.986;2024-01-15T08:15:42;24.70;;;10.03;;
5587;SDS011;2816;49.778;9.986;2024-01-15T08:18:08;15.53;;;8.07;;
5587;SDS011;2816;49.778;9.986;2024-01-15T08:20:35;22.93;;;9.10;;
5587;SDS011;2816;49.778;9.986;2024-01-15T08:23:02;25.13;;;11.07;;
5587;SDS011;2816;49.778;9.986;2024-01-15T08:25:31;19.60;;;9.80;;
5587;SDS011;2816;49.778;9.986;2024-01-15T08:27:57;23.53;;;10.13;;
5587;SDS011;2816;49.778;9.986;2024-01-15T08:30:24;18.93;;;8.97;;
5587;SDS011;2816;49.778;9.986;2024-01-15T08:32:52;19.63;;;8.43;;
5587;SDS011;2816;49.778;9.986;2024-01-15T08:35:19;25.93;;;10.47;;
5587;SDS011;2816;49.778;9.986;2024-01-15T08:37:47;23.10;;;10.90;;
5587;SDS011;2816;49.778;9.986;2024-01-15T08:40:15;21.10;;;10.40;;
5587;SDS011;2816;49.778;9.986;2024-01-15T08:42:43;22.60;;;12.37;;
5587;SDS011;2816;49.778;9.986;2024-01-15T08:45:10;24.50;;;10.87;;
5587;SDS011;2816;49.778;9.986;2024-01-15T08:47:38;19.70;;;9.27;;
5587;SDS011;2816;49.778;9.986;2024-01-15T08:50:05;21.30;;;9.77;;
5587;SDS011;2816;49.778;9.986;2024-01-15T08:52:35;24.67;;;10.67;;
5587;SDS011;2816;49.778;9.986;2024-01-15T08:55:02;20.77;;;10.40;;
5587;SDS011;2816;49.778;9.986;2024-01-15T08:57:32;22.27;;;8.67;;
5587;SDS011;2816;49.778;9.986;2024-01-15T09:00:00;20.80;;;9.00;;
5587;SDS011;2816;49.778;9.986;2024-01-15T09:02:27;19.00;;;8.83;;
5587;SDS011;2816;49.778;9.986;2024-01-15T09:04:54;24.90;;;10.37;;
5587;SDS011;2816;49.778;9.986;2024-01-15T09:07:21;26.03;;;10.50;;
5587;SDS011;2816;49.778;9.986;2024-01-15T09:09:49;26.23;;;10.27;;
5587;SDS011;2816;49.778;9.986;2024-01-15T09:12:16;20.87;;;9.30;;
5587;SDS011;2816;49.778;9.986;2024-01-15T09:14:43;17.93;;;9.73;;
5587;SDS011;2816;49.778;9.986;2024-01-15T09:17:11;22.40;;;11.93;;
5587;SDS011;2816;49.778;9.986;2024-01-15T09:19:38;18.13;;;8.43;;
5587;SDS011;2816;49.778;9.986;2024-01-15T09:22:06;22.27;;;10.07;;
5587;SDS011;2816;49.778;9.986;2024-01-15T09:24:33;21.10;;;8.97;;
5587;SDS011;2816;49.778;9.986;2024-01-15T09:27:00;20.53;;;9.30;;
5587;SDS011;2816;49.778;9.986;2024-01-15T09:29:27;20.47;;;9.97;;
5587;SDS011;2816;49.778;9.986;2024-01-15T09:31:54;23.13;;;9.90;;
5587;SDS011;2816;49.778;9.986;2024-01-15T09:34:23;20.10;;;9.40;;
5587;SDS011;2816;49.778;9.986;2024-01-15T09:36:50;20.90;;;10.50;;
5587;SDS011;2816;49.778;9.986;2024-01-15T09:39:17;16.93;;;7.67;;
5587;SDS011;2816;49.778;9.986;2024-01-15T09:41:43;16.13;;;9.27;;
5587;SDS011;2816;49.778;9.986;2024-01-15T09:44:11;24.13;;;11.07;;
5587;SDS011;2816;49.778;9.986;2024-01-15T09:46:38;15.57;;;8.30;;
5587;SDS011;2816;49.778;9.986;2024-01-15T09:49:06;18.17;;;7.80;;
5587;SDS011;2816;49.778;9.986;2024-01-15T09:51:35;20.07;;;9.00;;
5587;SDS011;2816;49.778;9.986;2024-01-15T09:54:02;20.10;;;9.33;;
5587;SDS011;2816;49.778;9.986;2024-01-15T09:56:30;16.43;;;8.67;;
5587;SDS011;2816;49.778;9.986;2024-01-15T09:58:57;17.30;;;9.50;;
5587;SDS011;2816;49.778;9.986;2024-01-15T10:01:24;20.03;;;9.97;;
5587;SDS011;2816;49.778;9.986;2024-01-15T10:03:51;19.87;;;10.53;;
5587;SDS011;2816;49.778;9.986;2024-01-15T10:06:18;24.13;;;10.60;;
5587;SDS011;2816;49.778;9.986;2024-01-15T10:08:49;17.83;;;10.00;;
5587;SDS011;2816;49.778;9.986;2024-01-15T10:11:16;16.67;;;7.40;;
5587;SDS011;2816;49.778;9.986;2024-01-15T10:13:44;21.90;;;9.70;;
5587;SDS011;2816;49.778;9.986;2024-01-15T10:16:11;13.27;;;7.83;;
5587;SDS011;2816;49.778;9.986;2024-01-15T10:18:38;18.30;;;10.23;;
5587;SDS011;2816;49.778;9.986;2024-01-15T10:21:06;25.67;;;13.50;;
5587;SDS011;2816;49.778;9.986;2024-01-15T10:23:33;19.70;;;11.40;;
5587;SDS011;2816;49.778;9.986;2024-01-15T10:26:02;19.83;;;9.50;;
5587;SDS011;2816;49.778;9.986;2024-01-15T10:28:30;19.43;;;10.03;;
5587;SDS011;2816;49.778;9.986;2024-01-15T10:30:57;27.70;;;11.40;;
5587;SDS011;2816;49.778;9.986;2024-01-15T10:33:25;20.33;;;9.17;;
5587;SDS011;2816;49.778;9.986;2024-01-15T10:35:53;18.93;;;9.47;;
5587;SDS011;2816;49.778;9.986;2024-01-15T10:38:20;17.60;;;8.60;;
5587;SDS011;2816;49.778;9.986;2024-01-15T10:40:47;8.33;;;5.00;;
5587;SDS011;2816;49.778;9.986;2024-01-15T10:43:18;18.83;;;9.43;;
5587;SDS011;2816;49.778;9.986;2024-01-15T10:45:45;17.23;;;9.17;;
5587;SDS011;2816;49.778;9.986;2024-01-15T10:48:12;18.20;;;8.40;;
5587;SDS011;2816;49.778;9.986;2024-01-15T10:50:39;18.43;;;9.07;;
5587;SDS011;2816;49.778;9.986;2024-01-15T10:53:06;16.90;;;9.37;;
5587;SDS011;2816;49.778;9.986;2024-01-15T10:55:35;20.20;;;10.27;;
5587;SDS011;2816;49.778;9.986;2024-01-15T10:58:04;14.17;;;7.60;;
5587;SDS011;2816;49.778;9.986;2024-01-15T11:00:34;18.40;;;8.93;;
5587;SDS011;2816;49.778;9.986;2024-01-15T11:03:03;10.70;;;5.83;;
5587;SDS011;2816;49.778;9.986;2024-01-15T11:05:33;19.60;;;9.70;;
5587;SDS011;2816;49.778;9.986;2024-01-15T11:07:59;17.47;;;9.20;;
5587;SDS011;2816;49.778;9.986;2024-01-15T11:10:40;21.57;;;11.40;;
5587;SDS011;2816;49.778;9.986;2024-01-15T11:13:08;17.63;;;9.40;;
5587;SDS011;2816;49.778;9.986;2024-01-15T11:18:23;16.63;;;8.50;;
5587;SDS011;2816;49.778;9.986;2024-01-15T11:23:53;21.47;;;8.93;;
5587;SDS011;2816;49.778;9.986;2024-01-15T11:26:33;19.90;;;10.60;;
5587;SDS011;2816;49.778;9.986;2024-01-15T11:29:02;18.43;;;10.30;;
5587;SDS011;2816;49.778;9.986;2024-01-15T11:34:51;20.40;;;10.43;;
5587;SDS011;2816;49.778;9.986;2024-01-15T11:37:20;16.90;;;10.50;;
5587;SDS011;2816;49.778;9.986;2024-01-15T11:39:49;19.40;;;8.50;;
5587;SDS011;2816;49.778;9.986;2024-01-15T11:42:19;21.67;;;10.90;;
5587;SDS011;2816;49.778;9.986;2024-01-15T11:44:47;18.10;;;10.80;;
5587;SDS011;2816;49.778;9.986;2024-01-15T11:47:15;17.93;;;10.53;;
5587;SDS011;2816;49.778;9.986;2024-01-15T11:50:00;19.77;;;10.40;;
5587;SDS011;2816;49.778;9.986;2024-01-15T11:52:31;18.63;;;10.20;;
5587;SDS011;2816;49.778;9.986;2024-01-15T11:55:10;24.13;;;10.97;;
5587;SDS011;2816;49.778;9.986;2024-01-15T11:57:43;15.03;;;8.20;;
5587;SDS011;2816;49.778;9.986;2024-01-15T12:00:12;14.17;;;8.60;;
5587;SDS011;2816;49.778;9.986;2024-01-15T12:02:43;18.03;;;10.30;;
5587;SDS011;2816;49.778;9.986;2024-01-15T12:05:11;16.40;;;9.10;;
5587;SDS011;2816;49.778;9.986;2024-01-15T12:07:39;15.63;;;9.70;;
5587;SDS011;2816;49.778;9.986;2024-01-15T12:10:08;15.07;;;8.80;;
5587;SDS011;2816;49.778;9.986;2024-01-15T12:12:43;17.43;;;8.43;;
5587;SDS011;2816;49.778;9.986;2024-01-15T12:15:23;22.40;;;9.57;;
5587;SDS011;2816;49.778;9.986;2024-01-15T12:17:52;15.23;;;9.07;;
5587;SDS011;2816;49.778;9.986;2024-01-15T12:20:20;13.43;;;8.70;;
5587;SDS011;2816;49.778;9.986;2024-01-15T12:22:47;14.50;;;7.47;;
5587;SDS011;2816;49.778;9.986;2024-01-15T12:25:14;13.30;;;7.80;;
5587;SDS011;2816;49.778;9.986;2024-01-15T12:27:41;13.27;;;7.93;;
5587;SDS011;2816;49.778;9.986;2024-01-15T12:30:10;16.00;;;7.90;;
5587;SDS011;2816;49.778;9.986;2024-01-15T12:32:38;13.30;;;8.07;;
5587;SDS011;2816;49.778;9.986;2024-01-15T12:35:08;16.13;;;8.87;;
5587;SDS011;2816;49.778;9.986;2024-01-15T12:37:35;11.87;;;8.07;;
5587;SDS011;2816;49.778;9.986;2024-01-15T12:40:03;14.87;;;7.97;;
5587;SDS011;2816;49.778;9.986;2024-01-15T12:42:32;15.73;;;7.83;;
5587;SDS011;2816;49.778;9.986;2024-01-15T12:44:59;12.47;;;8.53;;
5587;SDS011;2816;49.778;9.986;2024-01-15T12:47:26;13.00;;;7.70;;
5587;SDS011;2816;49.778;9.986;2024-01-15T12:49:53;14.40;;;6.97;;
5587;SDS011;2816;49.778;9.986;2024-01-15T12:52:22;11.40;;;6.93;;
5587;SDS011;2816;49.778;9.986;2024-01-15T12:54:49;9.77;;;6.07;;
5587;SDS011;2816;49.778;9.986;2024-01-15T12:57:16;10.97;;;5.90;;
5587;SDS011;2816;49.778;9.986;2024-01-15T12:59:43;11.30;;;6.60;;
5587;SDS011;2816;49.778;9.986;2024-01-15T13:02:10;10.03;;;5.90;;
5587;SDS011;2816;49.778;9.986;2024-01-15T13:04:38;8.20;;;6.27;;
5587;SDS011;2816;49.778;9.986;2024-01-15T13:07:05;8.13;;;5.30;;
5587;SDS011;2816;49.778;9.986;2024-01-15T13:09:35;10.37;;;5.80;;
5587;SDS011;2816;49.778;9.986;2024-01-15T13:12:02;7.03;;;4.90;;
5587;SDS011;2816;49.778;9.986;2024-01-15T13:14:29;7.97;;;5.30;;
5587;SDS011;2816;49.778;9.986;2024-01-15T13:16:56;7.77;;;5.30;;
5587;SDS011;2816;49.778;9.986;2024-01-15T13:19:24;8.47;;;4.20;;
5587;SDS011;2816;49.778;9.986;2024-01-15T13:21:52;8.70;;;5.40;;
5587;SDS011;2816;49.778;9.986;2024-01-15T13:24:19;7.50;;;5.40;;
5587;SDS011;2816;49.778;9.986;2024-01-15T13:26:49;7.13;;;6.17;;
5587;SDS011;2816;49.778;9.986;2024-01-15T13:29:15;6.53;;;4.17;;
5587;SDS011;2816;49.778;9.986;2024-01-15T13:31:43;4.37;;;3.37;;
5587;SDS011;2816;49.778;9.986;2024-01-15T13:34:11;8.50;;;5.30;;
5587;SDS011;2816;49.778;9.986;2024-01-15T13:36:39;6.67;;;5.13;;
5587;SDS011;2816;49.778;9.986;2024-01-15T13:39:06;7.67;;;3.77;;
5587;SDS011;2816;49.778;9.986;2024-01-15T13:41:34;5.90;;;4.60;;
5587;SDS011;2816;49.778;9.986;2024-01-15T13:44:02;8.53;;;4.83;;
5587;SDS011;2816;49.778;9.986;2024-01-15T13:46:29;6.77;;;4.43;;
5587;SDS011;2816;49.778;9.986;2024-01-15T13:48:56;8.70;;;5.47;;
5587;SDS011;2816;49.778;9.986;2024-01-15T13:51:23;16.57;;;7.43;;
5587;SDS011;2816;49.778;9.986;2024-01-15T13:53:50;7.67;;;4.93;;
5587;SDS011;2816;49.778;9.986;2024-01-15T13:56:18;10.23;;;6.10;;
5587;SDS011;2816;49.778;9.986;2024-01-15T13:58:45;7.90;;;5.20;;
5587;SDS011;2816;49.778;9.986;2024-01-15T14:01:16;11.30;;;6.93;;
5587;SDS011;2816;49.778;9.986;2024-01-15T14:03:43;22.83;;;12.23;;
5587;SDS011;2816;49.778;9.986;2024-01-15T14:06:10;9.40;;;5.43;;
5587;SDS011;2816;49.778;9.986;2024-01-15T14:08:37;6.27;;;4.63;;
5587;SDS011;2816;49.778;9.986;2024-01-15T14:11:04;6.20;;;4.90;;
5587;SDS011;2816;49.778;9.986;2024-01-15T14:13:32;9.67;;;5.30;;
5587;SDS011;2816;49.778;9.986;2024-01-15T14:15:59;6.90;;;4.03;;
5587;SDS011;2816;49.778;9.986;2024-01-15T14:18:27;10.50;;;5.73;;
5587;SDS011;2816;49.778;9.986;2024-01-15T14:20:54;9.53;;;6.07;;
5587;SDS011;2816;49.778;9.986;2024-01-15T14:23:21;8.03;;;5.80;;
5587;SDS011;2816;49.778;9.986;2024-01-15T14:25:48;8.00;;;6.00;;
5587;SDS011;2816;49.778;9.986;2024-01-15T14:28:15;8.87;;;5.37;;
5587;SDS011;2816;49.778;9.986;2024-01-15T14:30:42;11.17;;;6.07;;
5587;SDS011;2816;49.778;9.986;2024-01-15T14:33:09;12.50;;;6.57;;
5587;SDS011;2816;49.778;9.986;2024-01-15T14:35:37;9.03;;;6.33;;
5587;SDS011;2816;49.778;9.986;2024-01-15T14:38:04;8.77;;;5.60;;
5587;SDS011;2816;49.778;9.986;2024-01-15T14:40:32;10.70;;;6.07;;
5587;SDS011;2816;49.778;9.986;2024-01-15T14:43:00;7.80;;;5.70;;
5587;SDS011;2816;49.778;9.986;2024-01-15T14:45:27;7.87;;;3.50;;
5587;SDS011;2816;49.778;9.986;2024-01-15T14:47:55;9.43;;;5.63;;
5587;SDS011;2816;49.778;9.986;2024-01-15T14:50:23;6.80;;;4.47;;
5587;SDS011;2816;49.778;9.986;2024-01-15T14:52:51;5.60;;;4.13;;
5587;SDS011;2816;49.778;9.986;2024-01-15T14:55:19;6.90;;;5.17;;
5587;SDS011;2816;49.778;9.986;2024-01-15T14:57:48;8.57;;;5.83;;
5587;SDS011;2816;49.778;9.986;2024-01-15T15:00:15;5.70;;;4.40;;
5587;SDS011;2816;49.778;9.986;2024-01-15T15:02:42;10.13;;;5.97;;
5587;SDS011;2816;49.778;9.986;2024-01-15T15:05:09;6.37;;;3.67;;
5587;SDS011;2816;49.778;9.986;2024-01-15T15:07:38;5.83;;;4.17;;